createdAt,value
2022-09-22T00:05:01.997Z,100475.47
2022-09-22T00:10:28.651Z,100458.19
2022-09-22T00:15:54.667Z,100453.19
2022-09-22T00:21:21.824Z,100466.09
2022-09-22T00:26:46.564Z,100465.47
2022-09-22T00:32:12.792Z,100468.78
2022-09-22T00:37:36.627Z,100472.97
2022-09-22T00:43:18.081Z,100482.72
2022-09-22T00:48:48.593Z,100492.94
2022-09-22T00:54:19.063Z,100480.88
2022-09-22T00:59:47.432Z,100494.63
2022-09-22T01:05:13.506Z,100500.84
2022-09-22T01:10:37.505Z,100501.69
2022-09-22T01:16:19.192Z,100503.34
2022-09-22T01:21:51.387Z,100493.78
2022-09-22T01:27:32.116Z,100499.19
2022-09-22T01:33:18.000Z,100516.25
2022-09-22T01:38:49.767Z,100516.25
2022-09-22T01:44:18.758Z,100531.19
2022-09-22T01:49:49.214Z,100532.34
2022-09-22T01:55:20.831Z,100525.69
2022-09-22T02:00:50.097Z,100520.69
2022-09-22T02:06:21.148Z,100526.53
2022-09-22T02:11:46.065Z,100519.84
2022-09-22T02:17:11.919Z,100529.16
2022-09-22T02:22:37.826Z,100526.44
2022-09-22T02:28:03.560Z,100533.94
2022-09-22T02:33:33.788Z,100530.34
2022-09-22T02:39:07.344Z,100530.53
2022-09-22T02:44:41.997Z,100537.56
2022-09-22T02:50:11.040Z,100536.25
2022-09-22T02:55:37.392Z,100538.69
2022-09-22T03:01:01.195Z,100527.22
2022-09-22T03:06:25.311Z,100529.53
2022-09-22T03:11:50.773Z,100524.69
2022-09-22T03:17:15.138Z,100517.22
2022-09-22T03:22:40.533Z,100522.38
2022-09-22T03:28:06.260Z,100527.38
2022-09-22T03:33:31.225Z,100522.84
2022-09-22T03:38:57.207Z,100520.72
2022-09-22T04:55:33.783Z,100553.69
2022-09-22T05:01:03.324Z,100556.22
2022-09-22T05:06:27.519Z,100553.47
2022-09-22T05:11:54.379Z,100545.28
2022-09-22T05:17:20.677Z,100533.78
2022-09-22T05:22:45.759Z,100531.72
2022-09-22T05:28:12.784Z,100547.22
2022-09-22T05:33:38.888Z,100557.81
2022-09-22T05:39:05.258Z,100566.88
2022-09-22T05:44:31.215Z,100575.47
2022-09-22T05:49:57.159Z,100575.19
2022-09-22T05:55:21.837Z,100579.56
2022-09-22T06:00:49.505Z,100571.41
2022-09-22T06:06:15.003Z,100570.59
2022-09-22T06:11:40.192Z,100572.34
2022-09-22T06:17:10.724Z,100580.28
2022-09-22T06:22:37.111Z,100574.47
2022-09-22T06:28:04.913Z,100584.25
2022-09-22T06:33:31.518Z,100577.78
2022-09-22T06:38:57.057Z,100567.09
2022-09-22T06:44:22.034Z,100566.66
2022-09-22T06:49:47.977Z,100565.13
2022-09-22T06:55:14.340Z,100547.91
2022-09-22T07:00:41.844Z,100546.94
2022-09-22T07:06:08.396Z,100554.53
2022-09-22T07:11:39.550Z,100559.81
2022-09-22T07:17:05.446Z,100569.59
2022-09-22T07:22:32.849Z,100567.03
2022-09-22T07:28:05.046Z,100565.16
2022-09-22T07:33:29.808Z,100569.88
2022-09-22T07:38:58.245Z,100568.75
2022-09-22T07:44:44.290Z,100567.44
2022-09-22T07:50:09.834Z,100565.97
2022-09-22T07:55:36.756Z,100567.06
2022-09-22T08:01:06.721Z,100555.03
2022-09-22T08:06:31.723Z,100546.84
2022-09-22T08:11:57.852Z,100546.09
2022-09-22T08:17:25.189Z,100543.63
2022-09-22T08:22:53.228Z,100531.13
2022-09-22T08:28:19.130Z,100534.22
2022-09-22T08:33:43.819Z,100525.75
2022-09-22T08:39:08.769Z,100520.56
2022-09-22T08:44:39.834Z,100521.13
2022-09-22T08:50:37.338Z,100511.66
2022-09-22T08:56:08.410Z,100520.94
2022-09-22T09:01:52.972Z,100510.06
2022-09-22T09:07:29.994Z,100515.19
2022-09-22T09:13:10.859Z,100521.94
2022-09-22T09:18:42.309Z,100512.38
2022-09-22T09:30:03.148Z,100505.59
2022-09-22T09:35:39.745Z,100504.22
2022-09-22T09:41:14.697Z,100513.19
2022-09-22T09:46:51.793Z,100523.19
2022-09-22T09:52:20.242Z,100529.59
2022-09-22T09:58:04.348Z,100526.50
2022-09-22T10:03:30.599Z,100517.47
2022-09-22T10:08:57.650Z,100514.78
2022-09-22T10:14:21.895Z,100505.16
2022-09-22T10:19:45.719Z,100498.66
2022-09-22T10:25:21.856Z,100497.19
2022-09-22T10:31:01.234Z,100502.81
2022-09-22T10:36:27.073Z,100504.66
2022-09-22T10:41:52.942Z,100493.81
2022-09-22T10:47:31.200Z,100492.06
2022-09-22T10:53:00.007Z,100499.69
2022-09-22T10:58:46.929Z,100491.38
2022-09-22T11:04:43.649Z,100470.75
2022-09-22T11:10:38.272Z,100472.22
2022-09-22T11:16:20.587Z,100474.81
2022-09-22T11:21:58.452Z,100462.19
2022-09-22T11:27:36.465Z,100465.38
2022-09-22T11:33:26.031Z,100452.94
2022-09-22T11:39:10.343Z,100459.06
2022-09-22T11:44:43.805Z,100467.06
2022-09-22T11:50:32.662Z,100456.81
2022-09-22T11:56:11.870Z,100455.75
2022-09-22T12:01:40.218Z,100457.41
2022-09-22T12:07:11.061Z,100466.13
2022-09-22T12:12:35.339Z,100471.78
2022-09-22T12:18:05.780Z,100474.16
2022-09-22T12:23:39.190Z,100478.16
2022-09-22T12:29:09.360Z,100477.69
2022-09-22T13:17:39.791Z,100479.38
2022-09-22T13:23:07.616Z,100477.44
2022-09-22T13:28:32.444Z,100471.97
2022-09-22T13:33:58.251Z,100483.78
2022-09-22T13:39:25.201Z,100475.78
2022-09-22T13:44:56.818Z,100481.28
2022-09-22T13:50:24.032Z,100481.84
2022-09-22T13:55:50.781Z,100476.88
2022-09-22T14:01:16.908Z,100472.41
2022-09-22T14:06:44.406Z,100480.59
2022-09-22T14:12:12.174Z,100475.09
2022-09-22T14:17:36.835Z,100460.81
2022-09-22T14:23:02.592Z,100464.66
2022-09-22T14:28:29.750Z,100450.84
2022-09-22T14:33:54.575Z,100464.72
2022-09-22T14:39:31.286Z,100460.84
2022-09-22T14:45:18.528Z,100464.28
2022-09-22T14:50:45.740Z,100463.16
2022-09-22T14:56:18.269Z,100465.28
2022-09-22T15:02:09.319Z,100469.50
2022-09-22T15:07:35.985Z,100476.34
2022-09-22T15:13:28.166Z,100482.56
2022-09-22T15:18:52.587Z,100477.06
2022-09-22T15:24:25.172Z,100484.97
2022-09-22T15:29:56.383Z,100476.28
2022-09-22T15:35:20.980Z,100482.31
2022-09-22T15:40:46.772Z,100480.75
2022-09-22T15:46:28.164Z,100469.94
2022-09-22T15:51:53.080Z,100469.50
2022-09-22T15:57:17.552Z,100479.28
2022-09-22T16:02:43.625Z,100477.69
2022-09-22T16:08:08.521Z,100482.22
2022-09-22T16:13:33.311Z,100490.31
2022-09-22T16:19:00.654Z,100490.88
2022-09-22T16:24:28.040Z,100492.84
2022-09-22T16:29:52.387Z,100498.56
2022-09-22T16:35:18.349Z,100491.44
2022-09-22T16:40:43.086Z,100500.69
2022-09-22T16:46:25.443Z,100494.06
2022-09-22T16:51:54.267Z,100500.38
2022-09-22T16:57:20.075Z,100502.44
2022-09-22T17:02:46.848Z,100502.97
2022-09-22T17:08:13.401Z,100508.06
2022-09-22T17:13:37.879Z,100506.25
2022-09-22T17:19:04.947Z,100496.38
2022-09-22T17:24:31.458Z,100500.66
2022-09-22T17:29:56.641Z,100501.28
2022-09-22T17:35:21.237Z,100497.66
2022-09-22T17:40:46.998Z,100501.16
2022-09-22T17:46:14.689Z,100515.03
2022-09-22T17:51:57.220Z,100513.63
2022-09-22T17:57:25.554Z,100505.69
2022-09-22T18:02:54.282Z,100494.50
2022-09-22T18:08:19.401Z,100495.00
2022-09-22T18:13:47.762Z,100504.53
2022-09-22T18:19:12.127Z,100497.16
2022-09-22T18:24:37.206Z,100495.19
2022-09-22T18:30:05.127Z,100486.41
2022-09-22T18:35:31.847Z,100488.56
2022-09-22T18:40:57.723Z,100489.53
2022-09-22T18:46:23.786Z,100487.22
2022-09-22T18:51:49.655Z,100492.00
2022-09-22T18:57:14.258Z,100500.97
2022-09-22T19:02:40.317Z,100494.59
2022-09-22T19:08:05.151Z,100498.41
2022-09-22T19:13:31.269Z,100501.63
2022-09-22T19:18:59.340Z,100504.88
2022-09-22T19:24:25.089Z,100497.13
2022-09-22T19:29:50.641Z,100509.63
2022-09-22T19:35:16.896Z,100504.66
2022-09-22T19:40:41.359Z,100501.34
2022-09-22T19:46:06.040Z,100504.59
2022-09-22T19:51:33.419Z,100502.94
2022-09-22T19:57:00.261Z,100500.56
2022-09-22T20:02:24.368Z,100494.03
2022-09-22T20:07:49.635Z,100497.34
2022-09-22T20:13:27.826Z,100491.31
2022-09-22T20:18:52.181Z,100479.22
2022-09-22T20:24:21.272Z,100488.41
2022-09-22T20:29:46.811Z,100486.03
2022-09-22T20:35:13.269Z,100485.94
2022-09-22T20:40:39.183Z,100479.06
2022-09-22T20:46:03.826Z,100482.16
2022-09-22T20:51:28.537Z,100485.03
2022-09-22T20:56:54.494Z,100478.91
2022-09-22T21:02:19.242Z,100477.38
2022-09-22T21:07:44.149Z,100475.94
2022-09-22T21:13:09.594Z,100477.50
2022-09-22T21:18:35.140Z,100468.97
2022-09-22T21:24:01.965Z,100471.38
2022-09-22T21:29:27.829Z,100458.78
2022-09-22T21:34:52.085Z,100464.72
2022-09-22T21:40:18.638Z,100468.50
2022-09-22T21:45:44.247Z,100462.47
2022-09-22T21:51:11.513Z,100459.25
2022-09-22T21:56:36.079Z,100453.78
2022-09-22T22:02:01.630Z,100443.84
2022-09-22T22:07:25.750Z,100444.94
2022-09-22T22:12:50.015Z,100441.63
2022-09-22T22:18:15.547Z,100443.19
2022-09-22T22:23:44.025Z,100436.53
2022-09-22T22:29:09.198Z,100435.50
2022-09-22T22:34:34.655Z,100437.75
2022-09-22T22:39:58.404Z,100434.44
2022-09-22T22:45:22.744Z,100435.38
2022-09-22T22:50:48.203Z,100431.13
2022-09-22T22:56:16.268Z,100425.44
2022-09-22T23:01:44.008Z,100426.75
2022-09-22T23:07:10.863Z,100416.34
2022-09-22T23:12:35.764Z,100422.47
2022-09-22T23:17:59.892Z,100417.72
2022-09-22T23:23:25.421Z,100416.19
2022-09-22T23:28:49.646Z,100398.41
2022-09-22T23:34:16.307Z,100411.66
2022-09-22T23:39:44.785Z,100390.19
2022-09-22T23:45:10.579Z,100386.06
2022-09-22T23:50:34.972Z,100380.75
2022-09-22T23:56:02.441Z,100378.84
